Time;durP1;ratioP1;P1;durP2;ratioP2;P2;SDS_P1;SDS_P2;PMS_P1;PMS_P2;Temp;Humidity;BMP_temperature;BMP_pressure;BME280_temperature;BME280_humidity;BME280_pressure;Samples;Min_cycle;Max_cycle;Signal;HPM_P1;HPM_P2
2024/01/14 00:02:30;;;;;;;;;16.25;16.00;;;;;5.12;100.00;97884.66;5883847;29;96547;-55
2024/01/14 00:05:33;;;;;;;;;16.60;15.00;;;;;5.15;100.00;97878.88;5897884;29;96615;-56
2024/01/14 00:08:36;;;;;;;;;17.50;16.50;;;;;5.12;100.00;97876.63;5891269;29;96384;-55
2024/01/14 00:11:40;;;;;;;;;15.40;14.40;;;;;5.14;100.00;97876.41;5905841;29;96354;-56
2024/01/14 00:14:44;;;;;;;;;13.60;12.60;;;;;4.99;100.00;97871.31;5906637;29;97041;-55
2024/01/14 00:17:47;;;;;;;;;16.60;14.00;;;;;4.98;100.00;97859.03;5905775;29;96309;-55
2024/01/14 00:20:50;;;;;;;;;15.75;14.00;;;;;5.06;100.00;97861.44;5903943;29;96521;-55
2024/01/14 00:23:53;;;;;;;;;17.20;17.00;;;;;5.02;100.00;97862.91;5893813;29;96387;-55
2024/01/14 00:26:58;;;;;;;;;14.75;14.75;;;;;5.06;100.00;97860.63;5920102;29;96345;-55
2024/01/14 00:30:01;;;;;;;;;16.00;14.00;;;;;5.11;100.00;97848.28;5904604;29;96186;-55
2024/01/14 00:33:04;;;;;;;;;13.75;12.00;;;;;5.16;100.00;97853.81;5905586;29;96309;-55
2024/01/14 00:36:09;;;;;;;;;16.00;14.40;;;;;5.16;100.00;97852.97;5905373;29;96318;-56
2024/01/14 00:39:12;;;;;;;;;18.40;17.00;;;;;5.18;100.00;97846.38;5905272;29;96356;-55
2024/01/14 00:42:17;;;;;;;;;19.00;17.00;;;;;5.06;100.00;97848.09;5908117;29;96367;-55
2024/01/14 00:45:20;;;;;;;;;18.60;17.00;;;;;5.03;100.00;97832.50;5892749;29;96625;-55
2024/01/14 00:48:23;;;;;;;;;16.00;15.00;;;;;5.07;100.00;97852.41;5909116;29;97079;-56
2024/01/14 00:51:27;;;;;;;;;18.50;16.00;;;;;5.01;100.00;97842.56;5908446;29;96919;-57
2024/01/14 00:54:30;;;;;;;;;17.20;16.20;;;;;5.03;100.00;97839.69;5908425;29;96294;-56
2024/01/14 00:57:34;;;;;;;;;17.75;17.75;;;;;4.96;100.00;97839.72;5907722;29;96332;-55
2024/01/14 01:00:37;;;;;;;;;20.00;18.00;;;;;5.01;100.00;97837.22;5908465;29;96354;-55
2024/01/14 01:03:41;;;;;;;;;19.80;17.20;;;;;5.14;100.00;97839.81;5908993;29;96761;-55
2024/01/14 01:06:44;;;;;;;;;16.00;15.40;;;;;5.06;100.00;97809.88;5906336;29;96243;-56
2024/01/14 01:09:47;;;;;;;;;18.40;17.00;;;;;5.21;100.00;97819.25;5896564;29;96398;-56
2024/01/14 01:12:51;;;;;;;;;16.80;15.60;;;;;5.22;100.00;97812.88;5907997;29;96585;-55
2024/01/14 01:15:55;;;;;;;;;16.00;14.00;;;;;5.24;100.00;97813.47;5908509;29;96274;-55
2024/01/14 01:18:58;;;;;;;;;15.00;13.60;;;;;5.28;100.00;97794.34;5899346;29;97034;-57
2024/01/14 01:22:01;;;;;;;;;13.00;11.40;;;;;5.19;100.00;97788.41;5884413;29;96736;-58
2024/01/14 01:25:05;;;;;;;;;13.20;12.80;;;;;5.18;100.00;97778.78;5884626;29;96635;-58
2024/01/14 01:28:09;;;;;;;;;14.00;12.60;;;;;5.24;100.00;97777.91;5884633;29;96549;-58
2024/01/14 01:31:13;;;;;;;;;15.00;13.00;;;;;5.28;100.00;97764.97;5885318;29;97137;-57
2024/01/14 01:34:23;;;;;;;;;16.00;15.00;;;;;5.31;100.00;97760.00;5885405;29;96291;-57
2024/01/14 01:37:27;;;;;;;;;16.33;14.00;;;;;5.29;100.00;97762.06;5885294;29;96391;-57
2024/01/14 01:40:30;;;;;;;;;14.00;13.00;;;;;5.24;100.00;97749.34;5885218;29;96588;-57
2024/01/14 01:43:35;;;;;;;;;16.60;15.00;;;;;5.34;100.00;97753.38;5885741;29;96598;-57
2024/01/14 01:46:38;;;;;;;;;12.75;12.00;;;;;5.34;100.00;97742.69;5885633;29;96311;-57
2024/01/14 01:49:41;;;;;;;;;12.00;11.20;;;;;5.34;100.00;97746.19;5885696;29;96617;-57
2024/01/14 01:52:45;;;;;;;;;12.60;11.60;;;;;5.35;100.00;97739.00;5884883;29;96343;-57
2024/01/14 01:55:48;;;;;;;;;12.50;12.50;;;;;5.38;100.00;97742.06;5884791;29;96569;-57
2024/01/14 01:58:53;;;;;;;;;11.20;11.00;;;;;5.33;100.00;97739.22;5884518;29;96780;-57
2024/01/14 02:01:56;;;;;;;;;12.00;10.00;;;;;5.33;100.00;97733.88;5884639;29;96255;-57
2024/01/14 02:05:00;;;;;;;;;11.00;10.60;;;;;5.35;100.00;97736.31;6074473;23;98861;-59
2024/01/14 02:08:04;;;;;;;;;11.00;10.00;;;;;5.26;100.00;97732.28;5912320;29;96260;-58
2024/01/14 02:11:07;;;;;;;;;11.80;11.00;;;;;5.26;100.00;97730.44;5901265;29;96369;-59
2024/01/14 02:14:12;;;;;;;;;11.00;11.00;;;;;5.27;100.00;97729.41;5910310;29;96360;-59
2024/01/14 02:17:15;;;;;;;;;10.80;9.80;;;;;5.31;100.00;97732.47;5920293;29;96297;-59
2024/01/14 02:20:18;;;;;;;;;10.00;9.00;;;;;5.30;100.00;97720.94;5919574;29;96327;-59
2024/01/14 02:23:23;;;;;;;;;9.60;9.00;;;;;5.24;100.00;97719.13;5917024;29;96359;-60
2024/01/14 02:26:27;;;;;;;;;10.00;9.20;;;;;5.24;100.00;97713.78;5911756;29;96365;-60
2024/01/14 02:29:31;;;;;;;;;9.75;8.00;;;;;5.14;100.00;97695.56;5904560;29;96353;-59
2024/01/14 02:32:37;;;;;;;;;10.00;10.00;;;;;5.12;100.00;97699.50;5902726;29;96264;-60
2024/01/14 02:35:40;;;;;;;;;11.00;10.00;;;;;5.21;100.00;97698.19;5919197;29;96446;-59
2024/01/14 02:38:43;;;;;;;;;10.80;10.00;;;;;5.28;100.00;97687.47;5916734;29;96280;-59
2024/01/14 02:41:48;;;;;;;;;9.20;8.20;;;;;5.29;100.00;97691.75;5917587;29;96399;-61
2024/01/14 02:44:51;;;;;;;;;9.00;9.00;;;;;5.26;100.00;97670.81;5917631;29;99107;-60
2024/01/14 02:47:54;;;;;;;;;7.40;7.20;;;;;5.37;100.00;97686.16;5919238;29;96341;-60
2024/01/14 02:50:57;;;;;;;;;10.50;9.75;;;;;5.40;100.00;97681.19;5917713;29;96390;-59
2024/01/14 02:54:02;;;;;;;;;7.00;6.00;;;;;5.39;100.00;97676.88;5919000;29;96440;-60
2024/01/14 02:57:06;;;;;;;;;10.00;8.80;;;;;5.34;100.00;97670.53;5915202;29;96288;-60
2024/01/14 03:00:11;;;;;;;;;9.00;8.60;;;;;5.24;100.00;97671.03;5911355;29;96317;-60
2024/01/14 03:03:15;;;;;;;;;9.00;8.00;;;;;5.35;100.00;97664.16;5918397;29;96675;-60
2024/01/14 03:06:18;;;;;;;;;8.60;7.20;;;;;5.32;100.00;97662.78;5920815;29;96963;-60
2024/01/14 03:09:22;;;;;;;;;10.00;9.00;;;;;5.31;100.00;97657.63;5911995;29;98796;-64
2024/01/14 03:12:26;;;;;;;;;8.00;7.40;;;;;5.28;100.00;97653.53;5891824;29;97039;-64
2024/01/14 03:15:29;;;;;;;;;9.00;8.50;;;;;5.12;100.00;97633.53;5904753;29;96533;-64
2024/01/14 03:18:33;;;;;;;;;9.00;8.00;;;;;5.15;100.00;97637.63;5904773;29;96684;-64
2024/01/14 03:21:36;;;;;;;;;9.00;9.00;;;;;5.09;100.00;97633.94;5891688;29;96400;-64
2024/01/14 03:24:39;;;;;;;;;9.00;8.00;;;;;4.99;100.00;97632.78;5902473;29;96879;-65
2024/01/14 03:27:44;;;;;;;;;10.00;10.00;;;;;5.00;100.00;97624.56;5883346;29;96519;-65
2024/01/14 03:30:47;;;;;;;;;9.60;8.00;;;;;5.07;100.00;97614.69;5899100;29;96599;-64
2024/01/14 03:33:50;;;;;;;;;8.00;8.00;;;;;5.04;100.00;97623.09;5898864;29;96699;-65
2024/01/14 03:36:54;;;;;;;;;11.60;10.60;;;;;5.02;100.00;97619.03;5900844;29;96162;-64
2024/01/14 03:39:58;;;;;;;;;12.80;12.00;;;;;4.86;100.00;97600.84;5893787;29;96379;-65
2024/01/14 03:43:03;;;;;;;;;11.00;11.00;;;;;4.94;100.00;97608.59;5902265;29;96401;-65
2024/01/14 03:46:06;;;;;;;;;12.00;11.40;;;;;4.92;100.00;97595.47;5892881;29;96590;-65
2024/01/14 03:49:09;;;;;;;;;11.50;11.50;;;;;5.04;100.00;97590.22;5897634;29;96880;-64
2024/01/14 03:52:12;;;;;;;;;11.00;10.00;;;;;5.13;100.00;97594.28;5881527;29;96837;-64
2024/01/14 03:55:16;;;;;;;;;11.00;10.25;;;;;5.16;100.00;97593.84;5901722;29;96649;-64
2024/01/14 03:58:20;;;;;;;;;8.60;8.60;;;;;5.14;100.00;97594.06;5904036;29;96302;-65
2024/01/14 04:01:23;;;;;;;;;10.75;9.75;;;;;5.16;100.00;97592.00;5904885;29;96289;-64
2024/01/14 04:04:27;;;;;;;;;13.40;10.60;;;;;5.08;100.00;97581.56;5904850;29;96447;-64
2024/01/14 04:07:30;;;;;;;;;7.50;7.00;;;;;5.18;100.00;97587.22;5887177;29;97546;-64
2024/01/14 04:10:33;;;;;;;;;9.60;8.60;;;;;5.17;100.00;97590.97;5897830;29;96919;-64
2024/01/14 04:13:38;;;;;;;;;11.00;10.20;;;;;5.24;100.00;97588.22;5895927;29;98574;-64
2024/01/14 04:16:42;;;;;;;;;9.00;8.00;;;;;5.24;100.00;97596.22;5905554;29;96505;-64
2024/01/14 04:19:45;;;;;;;;;11.40;10.40;;;;;5.28;100.00;97594.75;5887258;29;98431;-64
2024/01/14 04:22:48;;;;;;;;;12.00;10.00;;;;;5.31;100.00;97599.66;5882266;29;99537;-64
2024/01/14 04:25:51;;;;;;;;;12.00;11.00;;;;;5.43;100.00;97587.22;5889746;29;98374;-64
2024/01/14 04:28:56;;;;;;;;;11.20;10.80;;;;;5.38;100.00;97580.88;5903435;29;96404;-64
2024/01/14 04:32:00;;;;;;;;;12.00;11.67;;;;;5.39;100.00;97594.03;5895728;29;97113;-64
2024/01/14 04:35:04;;;;;;;;;10.75;10.00;;;;;5.39;100.00;97586.03;5899493;29;96681;-64
2024/01/14 04:38:07;;;;;;;;;10.40;10.00;;;;;5.34;100.00;97577.03;5897325;29;96536;-64
2024/01/14 04:41:10;;;;;;;;;13.00;11.20;;;;;5.24;100.00;97578.34;5872945;29;96707;-64
2024/01/14 04:44:15;;;;;;;;;12.00;11.00;;;;;5.17;100.00;97566.09;5906532;29;96701;-63
2024/01/14 04:47:18;;;;;;;;;11.75;11.75;;;;;5.14;100.00;97553.97;5907567;29;96331;-64
2024/01/14 04:50:21;;;;;;;;;11.00;9.80;;;;;5.13;100.00;97560.34;5906590;29;96640;-64
2024/01/14 04:53:24;;;;;;;;;11.00;10.00;;;;;5.07;100.00;97552.41;5899538;29;96437;-64
2024/01/14 04:56:27;;;;;;;;;11.00;11.00;;;;;5.13;100.00;97554.22;5887290;29;96662;-64
2024/01/14 04:59:32;;;;;;;;;11.40;11.40;;;;;5.05;100.00;97557.97;5893135;29;96890;-64
2024/01/14 05:02:35;;;;;;;;;9.00;9.00;;;;;5.14;100.00;97561.19;5908195;29;96201;-63
2024/01/14 05:05:38;;;;;;;;;13.00;12.00;;;;;5.08;100.00;97570.88;5903725;29;96343;-63
2024/01/14 05:08:42;;;;;;;;;11.80;10.80;;;;;4.96;100.00;97569.16;5894662;29;99434;-64
2024/01/14 05:11:45;;;;;;;;;11.00;11.00;;;;;4.89;100.00;97560.38;5896895;29;96526;-64
2024/01/14 05:14:49;;;;;;;;;12.00;10.00;;;;;4.71;100.00;97558.44;5898721;29;98024;-64
2024/01/14 05:17:52;;;;;;;;;11.00;10.00;;;;;4.59;100.00;97557.53;5896212;29;96449;-64
2024/01/14 05:20:56;;;;;;;;;14.00;12.40;;;;;4.55;100.00;97561.63;5896052;29;96329;-64
2024/01/14 05:24:00;;;;;;;;;13.25;11.50;;;;;4.53;100.00;97558.38;5894662;29;98571;-64
2024/01/14 05:27:03;;;;;;;;;12.00;12.00;;;;;4.56;100.00;97553.44;5908561;29;98673;-64
2024/01/14 05:30:09;;;;;;;;;11.60;11.60;;;;;4.55;100.00;97564.31;5896852;29;96678;-63
2024/01/14 05:33:12;;;;;;;;;14.20;11.00;;;;;4.60;100.00;97554.63;5903229;29;96323;-64
2024/01/14 05:36:16;;;;;;;;;12.00;11.40;;;;;4.58;100.00;97559.38;5902488;29;97117;-63
2024/01/14 05:39:19;;;;;;;;;12.50;11.50;;;;;4.67;100.00;97570.59;5905832;29;96417;-63
2024/01/14 05:42:22;;;;;;;;;11.60;10.00;;;;;4.56;100.00;97560.59;5903718;29;96383;-63
2024/01/14 05:45:26;;;;;;;;;13.25;13.00;;;;;4.60;100.00;97551.97;5905932;29;96484;-64
2024/01/14 05:48:29;;;;;;;;;14.40;13.40;;;;;4.63;100.00;97553.38;5891010;29;96790;-64
2024/01/14 05:51:33;;;;;;;;;12.00;11.00;;;;;4.66;100.00;97567.13;5881882;29;98459;-63
2024/01/14 05:54:36;;;;;;;;;12.40;11.40;;;;;4.63;100.00;97562.22;5890302;29;96565;-64
2024/01/14 05:57:39;;;;;;;;;13.00;12.00;;;;;4.62;100.00;97562.44;5891192;29;96449;-64
2024/01/14 06:00:44;;;;;;;;;16.00;14.60;;;;;4.71;100.00;97563.78;5887506;29;99039;-64
2024/01/14 06:03:47;;;;;;;;;15.40;13.60;;;;;4.73;100.00;97567.91;5893772;29;96186;-64
2024/01/14 06:06:50;;;;;;;;;14.25;12.25;;;;;4.68;100.00;97564.25;5888923;29;96531;-64
2024/01/14 06:09:54;;;;;;;;;12.00;11.00;;;;;4.70;100.00;97562.97;5903754;29;96359;-64
2024/01/14 06:12:57;;;;;;;;;13.50;12.50;;;;;4.67;100.00;97559.94;5887529;29;97673;-63
2024/01/14 06:16:02;;;;;;;;;16.00;12.00;;;;;4.60;100.00;97546.63;5892005;29;96658;-64
2024/01/14 06:19:06;;;;;;;;;14.00;13.00;;;;;4.67;100.00;97543.91;5897343;29;96900;-64
2024/01/14 06:22:09;;;;;;;;;15.00;13.00;;;;;4.67;100.00;97544.72;5898321;29;96443;-64
2024/01/14 06:25:12;;;;;;;;;12.00;11.00;;;;;4.67;100.00;97547.41;5886372;29;96305;-64
2024/01/14 06:28:15;;;;;;;;;16.40;15.00;;;;;4.68;100.00;97542.88;5897476;29;96322;-64
2024/01/14 06:31:20;;;;;;;;;13.80;12.80;;;;;4.58;100.00;97534.53;5890324;29;96377;-64
2024/01/14 06:34:23;;;;;;;;;10.60;10.60;;;;;4.58;100.00;97532.69;5896184;29;96510;-64
2024/01/14 06:37:27;;;;;;;;;12.25;11.25;;;;;4.61;100.00;97534.09;5897911;29;96875;-64
2024/01/14 06:40:30;;;;;;;;;13.00;12.00;;;;;4.64;100.00;97539.03;5908239;29;96358;-60
2024/01/14 06:43:42;;;;;;;;;13.50;12.50;;;;;4.59;100.00;97538.84;5906788;29;96376;-60
2024/01/14 06:46:48;;;;;;;;;13.50;12.00;;;;;4.56;100.00;97552.59;5905246;29;96622;-60
2024/01/14 06:49:52;;;;;;;;;13.60;12.00;;;;;4.49;100.00;97541.19;5910651;29;96756;-60
2024/01/14 06:53:09;;;;;;;;;14.00;12.00;;;;;4.46;100.00;97539.75;5924120;29;97141;-59
2024/01/14 06:56:16;;;;;;;;;13.25;12.25;;;;;4.65;100.00;97544.13;5912638;29;96359;-60
2024/01/14 06:59:20;;;;;;;;;12.00;11.00;;;;;4.67;100.00;97538.56;5914060;29;96302;-60
2024/01/14 07:02:25;;;;;;;;;12.00;12.00;;;;;4.67;100.00;97541.25;5908549;29;96712;-62
2024/01/14 07:05:29;;;;;;;;;13.00;12.00;;;;;4.73;100.00;97535.88;5905814;29;96430;-61
2024/01/14 07:08:32;;;;;;;;;10.20;10.00;;;;;4.76;100.00;97538.09;5906327;29;96809;-59
2024/01/14 07:11:35;;;;;;;;;16.00;13.00;;;;;4.82;100.00;97527.56;5906480;29;96339;-59
2024/01/14 07:14:38;;;;;;;;;13.00;11.75;;;;;4.89;100.00;97529.13;5913327;29;99536;-60
2024/01/14 07:17:43;;;;;;;;;12.00;11.00;;;;;4.96;100.00;97529.09;5917951;29;96818;-59
2024/01/14 07:21:01;;;;;;;;;12.40;11.40;;;;;5.02;100.00;97526.38;5910268;29;96274;-59
2024/01/14 07:24:04;;;;;;;;;12.00;10.00;;;;;5.08;100.00;97530.03;5899049;29;96751;-59
2024/01/14 07:27:07;;;;;;;;;12.20;12.00;;;;;5.00;100.00;97528.44;5914193;29;98583;-60
2024/01/14 07:30:11;;;;;;;;;11.60;11.00;;;;;5.04;100.00;97518.13;5914025;29;96712;-59
2024/01/14 07:33:15;;;;;;;;;12.00;11.60;;;;;5.07;100.00;97523.03;5916824;29;96305;-60
2024/01/14 07:36:19;;;;;;;;;14.00;11.00;;;;;5.17;100.00;97520.69;5914993;29;96556;-60
2024/01/14 07:39:23;;;;;;;;;12.00;11.00;;;;;5.27;100.00;97523.66;5915002;29;96362;-64
2024/01/14 07:42:26;;;;;;;;;14.25;13.00;;;;;5.26;100.00;97516.69;5918026;29;97147;-63
2024/01/14 07:45:29;;;;;;;;;12.00;11.50;;;;;5.41;100.00;97527.00;5911765;29;96251;-60
2024/01/14 07:48:34;;;;;;;;;13.00;11.20;;;;;5.39;100.00;97519.22;5920440;29;96663;-62
2024/01/14 09:01:08;;;;;;;;;11.60;11.00;;;;;5.81;100.00;97528.19;6103828;24;99358;-60
2024/01/14 09:04:11;;;;;;;;;10.00;9.20;;;;;5.84;100.00;97533.09;5914157;29;96271;-61
2024/01/14 09:07:15;;;;;;;;;9.40;9.40;;;;;5.93;100.00;97541.66;5916081;29;97044;-60
2024/01/14 09:10:18;;;;;;;;;11.00;10.00;;;;;5.83;100.00;97534.13;5930017;29;96617;-61
2024/01/14 09:13:22;;;;;;;;;11.00;10.20;;;;;5.80;100.00;97528.41;5918469;29;96273;-62
2024/01/14 09:16:26;;;;;;;;;10.00;9.50;;;;;5.76;100.00;97528.06;5903354;29;98582;-62
2024/01/14 09:19:29;;;;;;;;;12.80;12.80;;;;;5.86;100.00;97540.91;5928818;29;96358;-63
2024/01/14 09:22:33;;;;;;;;;13.00;12.00;;;;;5.80;100.00;97539.13;5926963;29;96511;-63
2024/01/14 09:25:36;;;;;;;;;13.00;11.50;;;;;5.79;100.00;97530.28;5916357;29;96898;-62
2024/01/14 09:28:39;;;;;;;;;12.75;10.75;;;;;5.68;100.00;97537.19;5920051;29;99131;-61
2024/01/14 09:31:44;;;;;;;;;14.67;14.67;;;;;5.67;100.00;97518.69;5921640;29;96571;-60
2024/01/14 09:34:47;;;;;;;;;16.00;13.40;;;;;5.83;100.00;97526.09;5915983;29;96277;-61
2024/01/14 09:37:50;;;;;;;;;13.00;12.25;;;;;5.86;100.00;97517.66;5914827;29;96406;-61
2024/01/14 09:41:02;;;;;;;;;16.20;13.80;;;;;5.80;100.00;97512.38;5920427;29;97697;-62
2024/01/14 09:44:05;;;;;;;;;13.00;12.00;;;;;5.86;100.00;97503.47;5904815;29;98567;-59
2024/01/14 09:47:12;;;;;;;;;14.80;13.00;;;;;5.94;100.00;97525.38;5917170;29;97219;-60
2024/01/14 09:50:15;;;;;;;;;14.60;13.60;;;;;6.11;100.00;97514.84;5919653;29;96409;-60
2024/01/14 09:53:20;;;;;;;;;18.40;16.00;;;;;6.35;100.00;97529.16;5916931;29;97043;-61
2024/01/14 09:56:23;;;;;;;;;17.67;15.00;;;;;6.52;100.00;97522.09;5911594;29;97174;-60
2024/01/14 09:59:28;;;;;;;;;13.00;12.00;;;;;6.67;100.00;97517.13;5915744;29;97219;-62
2024/01/14 10:02:33;;;;;;;;;14.80;12.20;;;;;6.71;100.00;97514.81;5903504;29;96781;-61
2024/01/14 10:05:37;;;;;;;;;14.00;13.00;;;;;6.72;100.00;97511.09;5910856;29;96644;-60
2024/01/14 10:08:41;;;;;;;;;18.60;14.00;;;;;6.83;100.00;97518.34;5907377;29;96271;-62
2024/01/14 10:11:46;;;;;;;;;13.67;12.00;;;;;6.89;100.00;97507.50;5883731;29;97376;-62
2024/01/14 10:14:57;;;;;;;;;15.00;14.00;;;;;6.94;100.00;97521.00;5904171;29;96344;-61
2024/01/14 10:18:02;;;;;;;;;14.00;12.60;;;;;7.02;100.00;97516.38;5901924;29;96887;-62
2024/01/14 10:21:06;;;;;;;;;10.40;10.20;;;;;7.09;100.00;97509.81;5899214;29;96340;-62
2024/01/14 10:24:11;;;;;;;;;15.00;12.00;;;;;7.12;100.00;97520.09;5898438;29;96451;-62
2024/01/14 10:27:14;;;;;;;;;15.00;13.50;;;;;7.08;100.00;97512.75;5899624;29;96358;-61
2024/01/14 10:30:35;;;;;;;;;12.00;11.00;;;;;6.96;100.00;97520.78;5902436;29;97231;-63
2024/01/14 10:33:40;;;;;;;;;13.40;11.00;;;;;7.01;100.00;97517.41;5897490;29;96413;-61
2024/01/14 10:36:44;;;;;;;;;11.20;10.20;;;;;7.10;100.00;97529.41;5901767;29;97025;-61
2024/01/14 10:39:47;;;;;;;;;15.60;14.00;;;;;7.11;100.00;97525.69;5900412;29;97220;-61
2024/01/14 10:42:51;;;;;;;;;14.00;12.50;;;;;7.15;100.00;97521.47;5897818;29;97598;-62
2024/01/14 10:45:55;;;;;;;;;12.25;11.25;;;;;7.15;100.00;97513.44;5893305;29;98864;-62
2024/01/14 10:49:06;;;;;;;;;12.75;12.25;;;;;7.23;100.00;97518.47;5901639;29;98413;-61
2024/01/14 10:52:12;;;;;;;;;13.50;13.00;;;;;7.34;100.00;97507.72;5902165;29;97083;-62
2024/01/14 10:55:34;;;;;;;;;12.40;12.00;;;;;7.19;100.00;97504.69;5910333;29;98410;-61
2024/01/14 10:58:42;;;;;;;;;15.00;13.00;;;;;7.25;100.00;97503.78;5896144;29;97337;-62
2024/01/14 11:01:49;;;;;;;;;14.00;12.25;;;;;7.19;100.00;97512.75;5879063;29;98687;-61
2024/01/14 11:04:55;;;;;;;;;15.40;14.40;;;;;7.32;100.00;97517.06;5898505;29;97027;-62
2024/01/14 11:07:59;;;;;;;;;16.00;15.00;;;;;7.40;100.00;97506.78;5897514;29;96424;-61
2024/01/14 11:11:03;;;;;;;;;14.00;14.00;;;;;7.42;100.00;97495.03;5901430;29;96774;-61
2024/01/14 11:14:14;;;;;;;;;17.60;17.00;;;;;7.43;100.00;97499.34;5902232;29;97314;-62
2024/01/14 11:17:32;;;;;;;;;14.40;14.00;;;;;7.44;100.00;97493.72;5899152;29;96618;-61
2024/01/14 11:20:39;;;;;;;;;17.00;15.40;;;;;7.46;100.00;97497.00;5930624;29;96327;-60
2024/01/14 11:24:03;;;;;;;;;15.80;15.80;;;;;7.63;100.00;97489.84;5922223;29;96373;-60
2024/01/14 11:27:06;;;;;;;;;19.00;16.25;;;;;7.62;100.00;97484.72;5920895;29;96341;-60
2024/01/14 11:30:49;;;;;;;;;15.20;14.20;;;;;7.57;100.00;97495.34;5921624;29;96275;-60
2024/01/14 11:33:53;;;;;;;;;12.75;11.50;;;;;7.39;100.00;97470.31;5917729;29;96276;-61
2024/01/14 11:36:58;;;;;;;;;14.80;13.80;;;;;7.64;100.00;97486.13;5918812;29;96325;-60
2024/01/14 11:40:11;;;;;;;;;13.00;13.00;;;;;7.70;100.00;97479.81;5922323;29;96385;-61
2024/01/14 11:43:17;;;;;;;;;14.00;14.00;;;;;7.94;100.00;97477.84;5921925;29;96314;-61
2024/01/14 11:46:37;;;;;;;;;15.00;14.00;;;;;8.18;100.00;97484.75;5922200;29;96667;-60
2024/01/14 11:49:40;;;;;;;;;11.75;11.75;;;;;8.84;100.00;97488.63;5917939;29;96320;-61
2024/01/14 11:52:46;;;;;;;;;15.40;14.60;;;;;10.08;100.00;97472.81;5934149;29;96666;-61
2024/01/14 11:55:50;;;;;;;;;11.00;10.00;;;;;11.45;100.00;97482.88;5908017;29;96378;-60
2024/01/14 11:58:53;;;;;;;;;14.00;12.00;;;;;11.67;99.20;97482.72;5913016;29;96409;-60
2024/01/14 12:01:56;;;;;;;;;11.00;9.00;;;;;11.47;99.69;97482.63;5916832;29;97053;-62
2024/01/14 12:05:15;;;;;;;;;12.00;12.00;;;;;11.02;99.61;97472.34;5912123;29;96529;-60
2024/01/14 12:08:20;;;;;;;;;16.00;15.00;;;;;11.04;99.85;97472.91;5926826;29;96676;-60
2024/01/14 12:11:23;;;;;;;;;11.00;11.00;;;;;11.68;97.11;97476.22;5898856;29;97813;-61
2024/01/14 12:14:26;;;;;;;;;13.00;12.00;;;;;11.97;95.85;97453.16;5913816;29;96313;-63
2024/01/14 12:17:31;;;;;;;;;12.00;11.00;;;;;11.73;96.16;97462.78;5905812;29;96602;-61
2024/01/14 12:20:34;;;;;;;;;12.00;12.00;;;;;11.15;99.02;97471.88;5915978;29;96833;-60
2024/01/14 12:23:39;;;;;;;;;14.00;13.00;;;;;10.99;100.00;97470.19;5913094;29;96367;-61
2024/01/14 12:26:46;;;;;;;;;13.00;12.00;;;;;10.77;100.00;97479.16;5908777;29;96339;-61
2024/01/14 12:29:49;;;;;;;;;14.00;12.00;;;;;10.51;100.00;97480.00;5919479;29;96609;-63
2024/01/14 12:32:52;;;;;;;;;14.00;12.00;;;;;10.14;100.00;97477.19;5927082;29;96306;-63
2024/01/14 12:35:55;;;;;;;;;14.60;13.00;;;;;9.80;100.00;97473.84;5929406;29;97074;-62
2024/01/14 12:39:02;;;;;;;;;13.00;12.00;;;;;9.52;100.00;97480.22;5919483;29;96679;-64
2024/01/14 12:42:06;;;;;;;;;14.60;12.60;;;;;9.35;100.00;97471.38;5935411;29;96461;-63
2024/01/14 12:45:14;;;;;;;;;17.25;16.00;;;;;9.13;100.00;97465.16;5935041;29;96275;-63
2024/01/14 12:48:21;;;;;;;;;17.00;15.60;;;;;9.00;100.00;97468.97;5932573;29;96331;-63
2024/01/14 12:51:25;;;;;;;;;16.00;15.00;;;;;8.80;100.00;97475.91;5932191;29;96699;-63
2024/01/14 12:54:30;;;;;;;;;18.00;16.00;;;;;8.72;100.00;97482.50;5932549;29;97444;-64
2024/01/14 13:01:33;;;;;;;;;15.00;15.00;;;;;8.16;100.00;97473.44;7128943;23;98754;31
2024/01/14 13:04:38;;;;;;;;;16.00;15.00;;;;;8.10;100.00;97471.75;5858281;29;96331;-63
2024/01/14 13:07:41;;;;;;;;;17.00;14.00;;;;;8.14;100.00;97472.88;5830484;29;97158;-63
2024/01/14 13:10:46;;;;;;;;;16.00;16.00;;;;;8.18;100.00;97481.25;5849236;29;97110;-63
2024/01/14 13:13:49;;;;;;;;;12.25;12.25;;;;;8.32;100.00;97471.06;5841357;29;96392;-64
2024/01/14 13:16:52;;;;;;;;;14.00;13.00;;;;;8.46;100.00;97469.69;5864730;29;96271;-65
2024/01/14 13:19:56;;;;;;;;;17.00;14.00;;;;;8.32;100.00;97471.06;5859189;29;97412;-62
2024/01/14 13:23:00;;;;;;;;;12.20;11.00;;;;;8.22;100.00;97468.97;5852377;29;96708;-63
2024/01/14 13:26:04;;;;;;;;;16.00;14.00;;;;;8.28;100.00;97470.72;5847123;29;96297;-63
2024/01/14 13:29:09;;;;;;;;;14.40;13.00;;;;;8.26;100.00;97470.13;5845315;29;96878;-63
2024/01/14 13:32:13;;;;;;;;;16.00;15.75;;;;;8.16;100.00;97476.13;5841840;29;98396;-63
2024/01/14 13:35:16;;;;;;;;;14.40;13.00;;;;;8.14;100.00;97478.25;5830508;29;96549;-63
2024/01/14 13:38:19;;;;;;;;;12.20;12.00;;;;;8.05;100.00;97476.19;5849228;29;98856;-64
2024/01/14 13:41:24;;;;;;;;;16.20;15.80;;;;;8.15;100.00;97481.75;5846578;29;96917;-64
2024/01/14 13:44:27;;;;;;;;;14.20;13.00;;;;;8.05;100.00;97486.94;5846136;29;98561;-63
2024/01/14 13:47:31;;;;;;;;;16.00;15.00;;;;;7.93;100.00;97499.56;5850449;29;96251;-65
2024/01/14 13:50:34;;;;;;;;;14.00;12.60;;;;;7.77;100.00;97493.88;5831529;29;96674;-62
2024/01/14 13:53:37;;;;;;;;;15.00;14.00;;;;;7.72;100.00;97487.63;5845108;29;96311;-62
2024/01/14 13:56:42;;;;;;;;;15.00;14.00;;;;;7.64;100.00;97485.28;5846735;29;96613;-62
2024/01/14 13:59:45;;;;;;;;;16.40;14.00;;;;;7.67;100.00;97484.84;5840074;29;96201;-63
2024/01/14 14:02:49;;;;;;;;;15.00;15.00;;;;;7.57;100.00;97476.59;5841936;29;99155;-63
2024/01/14 14:05:52;;;;;;;;;18.40;16.60;;;;;7.60;100.00;97474.22;5841939;29;97167;-63
2024/01/14 14:08:58;;;;;;;;;18.60;17.00;;;;;7.52;100.00;97458.53;5839691;29;96988;-62
2024/01/14 14:12:04;;;;;;;;;15.60;14.00;;;;;7.61;100.00;97478.56;5841029;29;96383;-62
2024/01/14 14:15:08;;;;;;;;;15.00;15.00;;;;;7.63;100.00;97483.66;5849227;29;96330;-62
2024/01/14 14:18:11;;;;;;;;;13.40;13.00;;;;;7.63;100.00;97481.78;5847375;29;96268;-63
2024/01/14 14:21:22;;;;;;;;;19.00;15.40;;;;;7.64;100.00;97467.34;5860293;29;96288;-62
2024/01/14 14:24:25;;;;;;;;;17.75;15.50;;;;;7.62;100.00;97460.59;5846718;29;96301;-62
2024/01/14 14:27:30;;;;;;;;;17.00;15.00;;;;;7.64;100.00;97461.16;5841953;29;96770;-62
2024/01/14 14:30:33;;;;;;;;;16.25;15.00;;;;;7.62;100.00;97469.47;5845276;29;98286;-62
2024/01/14 14:33:36;;;;;;;;;16.40;13.60;;;;;7.35;100.00;97471.00;5844821;29;96873;-62
2024/01/14 14:36:40;;;;;;;;;15.50;14.25;;;;;7.36;100.00;97462.75;5859948;29;96343;-63
2024/01/14 14:39:43;;;;;;;;;14.40;13.00;;;;;7.26;100.00;97475.94;5848189;29;96251;-63
2024/01/14 14:42:48;;;;;;;;;16.00;15.00;;;;;7.27;100.00;97476.75;5843540;29;96486;-63
2024/01/14 14:45:52;;;;;;;;;16.00;14.75;;;;;7.10;100.00;97478.50;5845580;29;97935;-63
2024/01/14 14:48:56;;;;;;;;;15.20;15.00;;;;;6.94;100.00;97478.13;5848443;29;96303;-62
2024/01/14 14:52:00;;;;;;;;;17.40;16.00;;;;;6.92;100.00;97471.41;5844129;29;96937;-63
2024/01/14 14:55:03;;;;;;;;;13.80;13.80;;;;;6.87;100.00;97474.78;5841795;29;96422;-62
2024/01/14 14:58:08;;;;;;;;;17.00;16.40;;;;;6.92;100.00;97480.25;5842468;29;96682;-62
2024/01/14 15:01:12;;;;;;;;;17.00;15.50;;;;;6.82;100.00;97477.34;5842789;29;96335;-62
2024/01/14 15:04:33;;;;;;;;;17.60;15.60;;;;;6.78;100.00;97476.16;5839655;29;96595;-63
2024/01/14 15:07:36;;;;;;;;;15.20;14.20;;;;;6.84;100.00;97483.25;5837145;29;96456;-63
2024/01/14 15:10:39;;;;;;;;;17.25;16.00;;;;;6.84;100.00;97477.13;5839958;29;96340;-63
2024/01/14 15:13:44;;;;;;;;;17.00;15.40;;;;;6.77;100.00;97481.75;5853447;29;98659;-62
2024/01/14 15:16:48;;;;;;;;;19.00;17.00;;;;;6.66;100.00;97480.69;5854009;29;96495;-63
2024/01/14 15:19:51;;;;;;;;;16.80;15.00;;;;;6.49;100.00;97479.75;5839354;29;96098;-62
2024/01/14 15:22:54;;;;;;;;;18.80;16.00;;;;;6.46;100.00;97482.84;5857986;29;96604;-62
2024/01/14 15:25:57;;;;;;;;;18.00;16.60;;;;;6.49;100.00;97479.75;5846296;29;96928;-63